Arlington, Massachusetts
Current Conditions -  °F | °C
As of 5:03 AM on Monday 22 Dec 2014 (Local Time) from KBED Reporting Station
Overcast Overcast  
Wind Chill:   Ceiling: 1200
Heat Index:   Visibility: 10mi
Dew Point: -4°   Wind: 0mph
Humidity: 75%   Direction: NA
Pressure: 30.35"   Gusts: NA
Location:  42.42°N, 71.16°W
Report Text: KBED 221003Z AUTO 00000KT 10SM BKN012 OVC050 00/M04 A3035 RMK AO2 T00001039 TSNO
Loading
Personal Weather Stations






























Interactive Weather Map New forecast layout! Learn more

10-Day Weather Forecast

Advertisements
Track Severe Weather on mobile